Time;durP1;ratioP1;P1;durP2;ratioP2;P2;SDS_P1;SDS_P2;PMS_P1;PMS_P2;Temp;Humidity;BMP_temperature;BMP_pressure;BME280_temperature;BME280_humidity;BME280_pressure;Samples;Min_cycle;Max_cycle;Signal;HPM_P1;HPM_P2
2023/07/24 00:00:13;;;;;;;8.60;6.65;;;18.30;99.90;;;;;;5040360;28;20067;-62
2023/07/24 00:02:39;;;;;;;11.85;6.97;;;18.30;99.90;;;;;;5043372;28;20077;-62
2023/07/24 00:05:04;;;;;;;10.05;7.07;;;18.30;99.90;;;;;;5033282;28;20069;-62
2023/07/24 00:07:30;;;;;;;9.80;7.32;;;18.20;99.90;;;;;;5033377;28;20048;-63
2023/07/24 00:09:56;;;;;;;10.38;7.35;;;18.30;99.90;;;;;;5026115;28;20045;-62
2023/07/24 00:12:22;;;;;;;10.43;8.18;;;18.20;99.90;;;;;;5031236;28;20029;-62
2023/07/24 00:14:48;;;;;;;10.20;7.78;;;18.20;99.90;;;;;;5039670;28;20119;-62
2023/07/24 00:17:13;;;;;;;12.57;8.43;;;18.20;99.90;;;;;;5031404;28;20125;-62
2023/07/24 00:19:39;;;;;;;10.95;8.90;;;18.20;99.90;;;;;;5024752;28;20099;-62
2023/07/24 00:22:05;;;;;;;10.27;8.23;;;18.10;99.90;;;;;;5032630;28;20045;-62
2023/07/24 00:24:32;;;;;;;11.30;8.38;;;18.10;99.90;;;;;;5013080;28;20038;-62
2023/07/24 00:26:57;;;;;;;10.93;8.35;;;18.10;99.90;;;;;;5027624;28;20033;-62
2023/07/24 00:29:23;;;;;;;11.40;8.05;;;18.10;99.90;;;;;;5031800;28;20045;-62
2023/07/24 00:31:49;;;;;;;10.35;8.40;;;18.00;99.90;;;;;;5029432;28;20040;-62
2023/07/24 00:34:14;;;;;;;10.88;8.18;;;18.00;99.90;;;;;;5035664;28;20030;-62
2023/07/24 00:36:40;;;;;;;10.88;8.82;;;18.10;99.90;;;;;;5025560;28;20041;-62
2023/07/24 00:39:06;;;;;;;10.73;8.18;;;18.00;99.90;;;;;;5012954;28;20045;-62
2023/07/24 00:41:31;;;;;;;10.27;7.72;;;18.00;99.90;;;;;;5022261;28;20073;-62
2023/07/24 00:43:57;;;;;;;10.48;8.27;;;18.00;99.90;;;;;;5030707;28;20037;-62
2023/07/24 00:46:24;;;;;;;9.80;8.48;;;18.00;99.90;;;;;;5024915;28;20491;-62
2023/07/24 00:48:50;;;;;;;10.57;8.25;;;18.00;99.90;;;;;;5031508;28;20511;-62
2023/07/24 00:51:16;;;;;;;13.25;8.80;;;17.90;99.90;;;;;;5031706;28;20092;-62
2023/07/24 00:53:42;;;;;;;10.63;8.15;;;18.00;99.90;;;;;;5028248;28;20122;-62
2023/07/24 00:56:08;;;;;;;11.30;8.43;;;17.90;99.90;;;;;;5034992;28;20124;-63
2023/07/24 00:58:37;;;;;;;12.50;8.63;;;17.90;99.90;;;;;;5019803;28;20073;-62
2023/07/24 01:01:03;;;;;;;11.02;9.07;;;17.80;99.90;;;;;;5038954;28;20113;-62
2023/07/24 01:03:34;;;;;;;11.98;9.02;;;17.80;99.90;;;;;;5025113;28;20621;-62
2023/07/24 01:06:02;;;;;;;10.25;8.57;;;17.80;99.90;;;;;;5030675;28;20094;-62
2023/07/24 01:08:27;;;;;;;12.00;8.55;;;17.80;99.90;;;;;;5029598;28;20457;-62
2023/07/24 01:10:54;;;;;;;10.70;8.20;;;17.70;99.90;;;;;;5034955;28;20060;-62
2023/07/24 01:13:24;;;;;;;11.43;8.32;;;17.70;99.90;;;;;;5031406;28;20035;-62
2023/07/24 01:16:08;;;;;;;10.48;7.88;;;17.70;99.90;;;;;;5022456;28;20037;-62
2023/07/24 01:18:36;;;;;;;10.18;8.20;;;17.70;99.90;;;;;;5025757;28;20041;-62
2023/07/24 01:21:04;;;;;;;11.48;7.75;;;17.70;99.90;;;;;;5013755;28;20045;-62
2023/07/24 01:24:11;;;;;;;9.27;7.40;;;17.70;99.90;;;;;;5030880;28;20056;-62
2023/07/24 01:26:37;;;;;;;10.05;7.60;;;17.60;99.90;;;;;;5020380;28;20042;-62
2023/07/24 01:29:03;;;;;;;9.90;7.60;;;17.60;99.90;;;;;;5023154;28;20037;-62
2023/07/24 01:31:28;;;;;;;10.38;7.65;;;17.60;99.90;;;;;;5017944;28;20092;-62
2023/07/24 01:33:54;;;;;;;9.73;7.63;;;17.60;99.90;;;;;;5028255;28;20080;-62
2023/07/24 01:36:20;;;;;;;9.48;7.22;;;17.60;99.90;;;;;;5030919;28;20120;-62
2023/07/24 01:38:46;;;;;;;10.63;7.25;;;17.70;99.90;;;;;;5027385;28;20036;-62
2023/07/24 01:41:12;;;;;;;10.13;7.20;;;17.60;99.90;;;;;;5029952;28;20032;-62
2023/07/24 01:43:38;;;;;;;9.52;6.97;;;17.70;99.90;;;;;;5022905;28;20566;-62
2023/07/24 01:46:03;;;;;;;9.80;6.78;;;17.60;99.90;;;;;;5030399;28;20038;-62
2023/07/24 01:48:29;;;;;;;8.95;7.25;;;17.70;99.90;;;;;;5030527;28;20037;-62
2023/07/24 01:50:54;;;;;;;7.97;6.70;;;17.70;99.90;;;;;;5025904;28;20399;-62
2023/07/24 01:53:20;;;;;;;9.85;6.70;;;17.70;99.90;;;;;;5024490;28;20045;-62
2023/07/24 01:55:46;;;;;;;8.57;6.75;;;17.70;99.90;;;;;;5023939;28;20052;-62
2023/07/24 01:58:11;;;;;;;9.52;6.72;;;17.70;99.90;;;;;;5023459;28;20029;-62
2023/07/24 02:00:37;;;;;;;9.38;6.65;;;17.70;99.90;;;;;;5026730;28;20072;-62
2023/07/24 02:03:02;;;;;;;9.73;6.90;;;17.70;99.90;;;;;;5036671;28;20045;-62
2023/07/24 02:05:28;;;;;;;11.13;7.13;;;17.60;99.90;;;;;;5028173;28;20041;-62
2023/07/24 02:07:53;;;;;;;8.68;6.35;;;17.60;99.90;;;;;;5033737;28;20041;-62
2023/07/24 02:10:19;;;;;;;10.25;6.78;;;17.60;99.90;;;;;;5028680;28;20083;-62
2023/07/24 02:12:45;;;;;;;10.90;7.32;;;17.60;99.90;;;;;;5030348;28;20546;-62
2023/07/24 02:15:10;;;;;;;9.07;6.32;;;17.60;99.90;;;;;;5027449;28;20069;-63
2023/07/24 02:17:37;;;;;;;9.27;6.63;;;17.60;99.90;;;;;;5029870;28;20036;-63
2023/07/24 02:20:03;;;;;;;8.30;6.80;;;17.50;99.90;;;;;;5038729;28;20505;-63
2023/07/24 02:22:28;;;;;;;8.43;6.05;;;17.50;99.90;;;;;;5029128;28;20037;-63
2023/07/24 02:24:54;;;;;;;9.30;5.88;;;17.50;99.90;;;;;;5022794;28;20077;-63
2023/07/24 02:27:31;;;;;;;10.30;6.65;;;17.50;99.90;;;;;;5029340;28;20037;-63
2023/07/24 02:29:58;;;;;;;8.63;6.75;;;17.50;99.90;;;;;;5037564;28;20071;-62
2023/07/24 02:32:23;;;;;;;8.60;5.97;;;17.40;99.90;;;;;;5031256;28;20041;-63
2023/07/24 02:34:50;;;;;;;8.77;6.32;;;17.40;99.90;;;;;;5024723;28;20045;-63
2023/07/24 02:37:16;;;;;;;10.52;6.85;;;17.40;99.90;;;;;;5031795;28;20510;-63
2023/07/24 02:39:42;;;;;;;10.70;7.20;;;17.40;99.90;;;;;;5014514;28;20038;-63
2023/07/24 02:42:07;;;;;;;9.25;6.20;;;17.40;99.90;;;;;;5013574;28;20037;-63
2023/07/24 02:44:36;;;;;;;9.93;7.07;;;17.40;99.90;;;;;;5024821;28;20052;-63
2023/07/24 02:47:02;;;;;;;9.52;6.45;;;17.40;99.90;;;;;;5022901;28;20034;-63
2023/07/24 02:49:28;;;;;;;9.38;6.90;;;17.40;99.90;;;;;;5037922;28;20060;-63
2023/07/24 02:51:54;;;;;;;8.65;6.38;;;17.40;99.90;;;;;;5043875;28;20112;-63
2023/07/24 02:54:20;;;;;;;10.95;7.45;;;17.40;99.90;;;;;;5040087;28;20116;-63
2023/07/24 02:56:45;;;;;;;9.85;6.70;;;17.40;99.90;;;;;;5017722;28;20495;-63
2023/07/24 02:59:11;;;;;;;9.95;7.18;;;17.40;99.90;;;;;;5035950;28;20037;-63
2023/07/24 03:01:37;;;;;;;9.68;6.72;;;17.40;99.90;;;;;;5019736;28;20038;-63
2023/07/24 03:04:05;;;;;;;9.60;6.82;;;17.40;99.90;;;;;;5036493;28;20047;-63
2023/07/24 03:06:30;;;;;;;9.27;6.78;;;17.40;99.90;;;;;;5034571;28;20038;-63
2023/07/24 03:08:56;;;;;;;8.45;6.38;;;17.40;99.90;;;;;;5037166;28;20048;-63
2023/07/24 03:11:22;;;;;;;11.43;7.28;;;17.50;99.90;;;;;;5033072;28;20479;-63
2023/07/24 03:13:47;;;;;;;8.15;6.90;;;17.50;99.90;;;;;;5032967;28;20052;-63
2023/07/24 03:16:13;;;;;;;9.45;6.97;;;17.50;99.90;;;;;;5035371;28;20046;-63
2023/07/24 03:18:38;;;;;;;9.48;6.90;;;17.50;99.90;;;;;;5035314;28;20037;-63
2023/07/24 03:21:04;;;;;;;9.40;6.78;;;17.40;99.90;;;;;;5035196;28;20038;-63
2023/07/24 03:23:29;;;;;;;8.95;6.88;;;17.40;99.90;;;;;;5025654;28;20388;-62
2023/07/24 03:25:55;;;;;;;10.40;6.80;;;17.50;99.90;;;;;;5025585;28;20056;-63
2023/07/24 03:28:21;;;;;;;9.30;6.82;;;17.50;99.90;;;;;;5037460;28;20025;-63
2023/07/24 03:30:46;;;;;;;9.00;6.63;;;17.60;99.90;;;;;;5044253;28;20036;-63
2023/07/24 03:33:12;;;;;;;8.80;6.65;;;17.40;99.90;;;;;;5030204;28;20121;-63
2023/07/24 03:35:39;;;;;;;10.32;7.38;;;17.50;99.90;;;;;;5014112;28;20045;-63
2023/07/24 03:38:05;;;;;;;8.63;7.00;;;17.40;99.90;;;;;;5028695;28;20061;-63
2023/07/24 03:40:30;;;;;;;10.45;7.53;;;17.40;99.90;;;;;;5037170;28;20041;-63
2023/07/24 03:42:56;;;;;;;10.35;7.40;;;17.50;99.90;;;;;;5034929;28;20041;-63
2023/07/24 03:45:21;;;;;;;10.82;7.78;;;17.40;99.90;;;;;;5029118;28;20038;-63
2023/07/24 03:47:47;;;;;;;11.85;7.32;;;17.50;99.90;;;;;;5013466;28;20399;-63
2023/07/24 03:50:13;;;;;;;11.38;8.18;;;17.50;99.90;;;;;;5034370;28;20407;-63
2023/07/24 03:52:38;;;;;;;11.40;7.93;;;17.50;99.90;;;;;;5036084;28;20033;-63
2023/07/24 03:55:04;;;;;;;11.55;8.13;;;17.50;99.90;;;;;;5039274;28;20571;-63
2023/07/24 03:57:30;;;;;;;12.98;7.75;;;17.50;99.90;;;;;;5021605;28;20045;-62
2023/07/24 03:59:55;;;;;;;9.82;7.80;;;17.50;99.90;;;;;;5031687;28;20502;-63
2023/07/24 04:02:21;;;;;;;10.30;7.47;;;17.50;99.90;;;;;;5033393;28;20033;-63
2023/07/24 04:04:47;;;;;;;11.45;8.35;;;17.50;99.90;;;;;;5032406;28;20208;-63
2023/07/24 04:07:13;;;;;;;12.40;8.13;;;17.50;99.90;;;;;;5028213;28;20045;-63
2023/07/24 04:09:39;;;;;;;12.10;7.97;;;17.40;99.90;;;;;;5019910;28;20041;-62
2023/07/24 04:12:04;;;;;;;12.15;8.45;;;17.50;99.90;;;;;;5034690;28;20065;-63
2023/07/24 04:14:30;;;;;;;15.32;8.63;;;17.50;99.90;;;;;;5032927;28;20042;-63
2023/07/24 04:16:56;;;;;;;10.70;8.00;;;17.50;99.90;;;;;;5032944;28;20499;-62
2023/07/24 04:19:21;;;;;;;11.68;8.73;;;17.50;99.90;;;;;;5032811;28;20072;-63
2023/07/24 04:21:47;;;;;;;11.73;8.27;;;17.40;99.90;;;;;;5033005;28;20384;-62
2023/07/24 04:24:13;;;;;;;12.38;8.60;;;17.40;99.90;;;;;;5032180;28;20124;-63
2023/07/24 04:26:39;;;;;;;11.75;8.90;;;17.40;99.90;;;;;;5030662;28;20030;-63
2023/07/24 04:29:05;;;;;;;12.80;9.00;;;17.40;99.90;;;;;;5031669;28;20041;-63
2023/07/24 04:31:31;;;;;;;11.05;8.77;;;17.40;99.90;;;;;;5013323;28;20392;-63
2023/07/24 04:33:56;;;;;;;12.25;9.20;;;17.40;99.90;;;;;;5012283;28;20049;-63
2023/07/24 04:36:22;;;;;;;11.60;9.02;;;17.40;99.90;;;;;;5027617;28;20042;-63
2023/07/24 04:38:48;;;;;;;11.63;8.98;;;17.40;99.90;;;;;;5032686;28;20045;-63
2023/07/24 04:41:13;;;;;;;13.20;9.52;;;17.40;99.90;;;;;;5028893;28;20045;-63
2023/07/24 04:43:39;;;;;;;13.38;8.82;;;17.40;99.90;;;;;;5028664;28;20191;-63
2023/07/24 04:46:05;;;;;;;13.27;9.77;;;17.40;99.90;;;;;;5030215;28;20134;-63
2023/07/24 04:48:30;;;;;;;11.82;8.98;;;17.40;99.90;;;;;;5030706;28;20361;-63
2023/07/24 04:50:56;;;;;;;12.85;9.05;;;17.40;99.90;;;;;;5029034;28;20041;-63
2023/07/24 04:53:22;;;;;;;12.05;9.27;;;17.40;99.90;;;;;;5034559;28;20037;-63
2023/07/24 04:55:48;;;;;;;13.48;9.32;;;17.40;99.90;;;;;;5034589;28;20395;-63
2023/07/24 04:58:14;;;;;;;12.35;9.20;;;17.40;99.90;;;;;;5032230;28;20049;-63
2023/07/24 05:00:40;;;;;;;12.93;9.43;;;17.40;99.90;;;;;;5033498;28;20403;-63
2023/07/24 05:03:08;;;;;;;13.98;9.20;;;17.40;99.90;;;;;;5030590;28;20037;-63
2023/07/24 05:05:33;;;;;;;13.00;9.20;;;17.50;99.90;;;;;;5025715;28;20080;-63
2023/07/24 05:07:59;;;;;;;15.07;10.45;;;17.40;99.90;;;;;;5023608;28;20060;-63
2023/07/24 05:10:24;;;;;;;14.10;9.93;;;17.40;99.90;;;;;;5031856;28;20443;-63
2023/07/24 05:12:50;;;;;;;13.85;9.93;;;17.40;99.90;;;;;;5031637;28;20045;-63
2023/07/24 05:15:16;;;;;;;12.23;9.65;;;17.50;99.90;;;;;;5031088;28;20047;-63
2023/07/24 05:20:21;;;;;;;13.23;9.63;;;17.40;99.90;;;;;;5048276;28;20056;-67
2023/07/24 05:22:47;;;;;;;13.63;9.65;;;17.40;99.90;;;;;;5043423;28;20034;-67
2023/07/24 05:25:12;;;;;;;14.35;9.77;;;17.30;99.90;;;;;;5050903;28;20457;-67
2023/07/24 05:27:38;;;;;;;12.93;9.80;;;17.40;99.90;;;;;;5052564;28;20035;-66
2023/07/24 05:30:05;;;;;;;14.65;9.50;;;17.30;99.90;;;;;;5051388;28;20090;-67
2023/07/24 05:32:31;;;;;;;15.10;10.02;;;17.40;99.90;;;;;;5050153;28;20033;-67
2023/07/24 05:34:57;;;;;;;12.80;9.45;;;17.40;99.90;;;;;;5033472;28;20063;-67
2023/07/24 05:37:22;;;;;;;13.60;10.07;;;17.40;99.90;;;;;;5032226;28;20044;-66
2023/07/24 05:39:48;;;;;;;12.98;10.20;;;17.30;99.90;;;;;;5031238;28;20038;-67
2023/07/24 05:42:13;;;;;;;14.07;9.82;;;17.30;99.90;;;;;;5047023;28;20670;-67
2023/07/24 05:44:39;;;;;;;14.05;10.02;;;17.40;99.90;;;;;;5043497;28;20486;-67
2023/07/24 05:47:04;;;;;;;13.27;9.40;;;17.40;99.90;;;;;;5049120;28;20029;-66
2023/07/24 05:49:30;;;;;;;15.40;10.15;;;17.40;99.90;;;;;;5045518;28;20065;-66
2023/07/24 05:51:56;;;;;;;14.65;10.07;;;17.50;99.90;;;;;;5049361;28;20073;-67
2023/07/24 05:54:22;;;;;;;14.10;9.95;;;17.50;99.90;;;;;;5050044;28;20545;-66
2023/07/24 05:56:48;;;;;;;14.77;9.75;;;17.60;99.90;;;;;;5049648;28;20198;-67
2023/07/24 05:59:13;;;;;;;13.40;9.77;;;17.60;99.90;;;;;;5044028;28;20025;-66
2023/07/24 06:01:39;;;;;;;14.90;10.85;;;17.70;99.90;;;;;;5035544;28;20029;-66
2023/07/24 06:04:07;;;;;;;11.93;9.35;;;17.70;99.90;;;;;;5043437;28;20068;-66
2023/07/24 06:06:32;;;;;;;14.68;9.60;;;17.70;99.90;;;;;;5044700;28;20115;-66
2023/07/24 06:08:58;;;;;;;14.15;9.98;;;17.70;99.90;;;;;;5048108;28;20167;-66
2023/07/24 06:11:24;;;;;;;14.27;10.02;;;17.70;99.90;;;;;;5041837;28;20372;-66
2023/07/24 06:13:49;;;;;;;14.43;9.80;;;17.70;99.90;;;;;;5049048;28;20487;-66
2023/07/24 06:16:15;;;;;;;12.90;9.80;;;17.70;99.90;;;;;;5034524;28;20037;-66
2023/07/24 06:18:42;;;;;;;14.35;9.10;;;17.70;99.90;;;;;;5050062;28;20128;-66
2023/07/24 06:21:08;;;;;;;15.35;9.30;;;17.80;99.90;;;;;;5046555;28;20095;-66
2023/07/24 06:23:33;;;;;;;13.57;9.48;;;17.80;99.90;;;;;;5038330;28;20447;-66
2023/07/24 06:25:59;;;;;;;12.38;9.82;;;17.80;99.90;;;;;;5048459;28;20123;-66
2023/07/24 06:28:24;;;;;;;12.10;9.27;;;17.90;99.90;;;;;;5041697;28;20033;-66
2023/07/24 06:30:53;;;;;;;14.38;10.32;;;17.80;99.90;;;;;;5035857;28;20041;-66
2023/07/24 06:33:18;;;;;;;13.82;10.20;;;17.90;99.90;;;;;;5041840;28;20034;-66
2023/07/24 06:35:44;;;;;;;13.13;10.25;;;17.90;99.90;;;;;;5052615;28;20041;-66
2023/07/24 06:38:09;;;;;;;13.65;10.23;;;18.00;99.90;;;;;;5049904;28;20480;-66
2023/07/24 06:40:35;;;;;;;15.82;10.00;;;18.10;99.90;;;;;;5043195;28;20099;-66
2023/07/24 06:43:01;;;;;;;13.73;9.95;;;18.10;99.90;;;;;;5042412;28;20033;-66
2023/07/24 06:45:26;;;;;;;13.48;9.98;;;18.30;99.90;;;;;;5033817;28;20041;-66
2023/07/24 06:47:52;;;;;;;15.25;10.07;;;18.40;99.90;;;;;;5042102;28;20072;-66
2023/07/24 06:50:17;;;;;;;14.18;10.25;;;18.40;99.90;;;;;;5043567;28;20122;-65
2023/07/24 06:52:43;;;;;;;12.68;9.35;;;18.50;99.90;;;;;;5045952;28;20030;-65
2023/07/24 06:55:09;;;;;;;14.05;9.98;;;18.50;99.90;;;;;;5043135;28;20044;-65
2023/07/24 06:57:34;;;;;;;16.13;10.40;;;18.40;99.90;;;;;;5040064;28;20403;-65
2023/07/24 07:00:00;;;;;;;15.23;10.52;;;18.50;99.90;;;;;;5049835;28;20041;-65
2023/07/24 07:02:25;;;;;;;14.80;9.77;;;18.60;99.90;;;;;;5047884;28;20067;-65
2023/07/24 07:04:51;;;;;;;14.15;9.27;;;18.50;99.90;;;;;;5042245;28;20051;-65
2023/07/24 07:07:16;;;;;;;13.02;9.77;;;18.60;99.90;;;;;;5048958;28;20036;-66
2023/07/24 07:09:42;;;;;;;14.10;10.13;;;18.60;99.90;;;;;;5053604;28;20036;-65
2023/07/24 07:12:08;;;;;;;13.68;8.95;;;18.70;99.90;;;;;;5049132;28;20037;-66
2023/07/24 07:14:33;;;;;;;14.00;9.45;;;18.80;99.90;;;;;;5046442;28;20123;-66
2023/07/24 07:16:59;;;;;;;15.60;10.02;;;19.00;99.90;;;;;;5043369;28;20041;-66
2023/07/24 07:19:25;;;;;;;12.80;8.93;;;19.20;99.90;;;;;;5043303;28;20033;-65
2023/07/24 07:21:51;;;;;;;12.27;8.90;;;19.30;99.90;;;;;;5052171;28;20119;-65
2023/07/24 07:24:16;;;;;;;14.63;9.60;;;19.30;99.90;;;;;;5042421;28;20099;-65
2023/07/24 07:26:42;;;;;;;11.95;8.25;;;19.20;99.90;;;;;;5048385;28;20453;-65
2023/07/24 07:29:07;;;;;;;11.32;8.68;;;19.20;99.90;;;;;;5034761;28;20076;-66
2023/07/24 07:31:33;;;;;;;12.23;8.65;;;19.10;99.90;;;;;;5036912;28;20376;-68
2023/07/24 07:33:59;;;;;;;13.20;8.60;;;19.10;99.90;;;;;;5045531;28;20087;-68
2023/07/24 07:36:24;;;;;;;15.27;8.88;;;19.10;99.90;;;;;;5052795;28;20037;-68
2023/07/24 07:38:50;;;;;;;11.45;8.77;;;19.20;99.90;;;;;;5044091;28;20112;-68
2023/07/24 07:41:15;;;;;;;12.48;8.60;;;19.30;99.90;;;;;;5053741;28;20089;-68
2023/07/24 07:43:41;;;;;;;11.23;7.72;;;19.40;99.90;;;;;;5053132;28;20041;-68
2023/07/24 07:46:06;;;;;;;12.48;7.47;;;19.50;99.90;;;;;;5051830;28;20124;-68
2023/07/24 07:48:32;;;;;;;10.75;7.75;;;19.70;99.90;;;;;;5045104;28;20029;-68
2023/07/24 07:50:58;;;;;;;11.55;7.60;;;19.80;99.90;;;;;;5045882;28;20521;-68
2023/07/24 07:53:24;;;;;;;12.70;7.63;;;19.80;99.90;;;;;;5044913;28;20025;-68
2023/07/24 07:55:57;;;;;;;16.30;7.75;;;19.60;99.90;;;;;;5044865;28;20045;-69
2023/07/24 07:58:23;;;;;;;11.52;7.20;;;19.50;99.90;;;;;;5049950;28;20120;-69
2023/07/24 08:00:48;;;;;;;14.07;8.43;;;19.40;99.90;;;;;;5053105;28;20106;-68
2023/07/24 08:03:14;;;;;;;13.07;8.50;;;19.40;99.90;;;;;;5047555;28;20495;-68
2023/07/24 08:05:39;;;;;;;11.75;8.70;;;19.30;99.90;;;;;;5046521;28;20041;-69
2023/07/24 08:08:05;;;;;;;13.55;8.90;;;19.50;99.90;;;;;;5034448;28;20120;-70
2023/07/24 08:10:31;;;;;;;13.85;8.20;;;19.70;99.90;;;;;;5033076;28;20037;-70
2023/07/24 08:12:56;;;;;;;14.55;8.95;;;20.00;99.90;;;;;;5041037;28;20029;-70
2023/07/24 08:15:22;;;;;;;11.02;8.32;;;20.10;99.90;;;;;;5045709;28;20144;-68
2023/07/24 08:17:47;;;;;;;12.98;8.23;;;20.30;99.90;;;;;;5052375;28;20037;-68
2023/07/24 08:20:13;;;;;;;11.18;7.90;;;20.30;99.90;;;;;;5039175;28;20040;-68
2023/07/24 08:22:38;;;;;;;10.48;7.38;;;20.30;99.90;;;;;;5048124;28;20510;-68
2023/07/24 08:25:04;;;;;;;14.20;7.85;;;20.30;99.90;;;;;;5052620;28;20041;-68
2023/07/24 08:27:30;;;;;;;13.65;8.75;;;20.40;99.90;;;;;;5052658;28;20437;-68
2023/07/24 08:29:56;;;;;;;13.18;8.27;;;20.40;99.90;;;;;;5051029;28;20076;-68
2023/07/24 08:32:21;;;;;;;9.57;7.70;;;20.30;99.90;;;;;;5044693;28;20041;-68
2023/07/24 08:34:47;;;;;;;13.35;7.47;;;20.30;99.90;;;;;;5041120;28;20460;-68
2023/07/24 08:37:12;;;;;;;10.45;8.30;;;20.40;99.90;;;;;;5052408;28;20041;-68
2023/07/24 08:39:38;;;;;;;14.20;9.07;;;20.40;99.90;;;;;;5052823;28;20116;-68
2023/07/24 08:42:11;;;;;;;15.15;8.57;;;20.30;99.90;;;;;;5046904;28;20033;-68
2023/07/24 08:44:37;;;;;;;13.90;7.72;;;20.40;99.90;;;;;;5043880;28;20035;-68
2023/07/24 08:47:03;;;;;;;11.60;7.57;;;20.40;99.90;;;;;;5046540;28;20028;-68
2023/07/24 08:49:29;;;;;;;10.02;6.78;;;20.50;99.90;;;;;;5052373;28;20119;-69
2023/07/24 08:51:57;;;;;;;11.20;7.15;;;20.60;99.90;;;;;;5052233;28;20526;-69
2023/07/24 08:54:26;;;;;;;11.63;6.95;;;20.60;99.90;;;;;;5052521;28;20368;-69
2023/07/24 08:56:52;;;;;;;10.57;6.95;;;20.60;99.90;;;;;;5041806;28;20037;-70
2023/07/24 08:59:18;;;;;;;12.13;7.55;;;20.60;99.90;;;;;;5046616;28;20602;-69
2023/07/24 09:01:44;;;;;;;12.13;7.50;;;20.50;99.90;;;;;;5043981;28;20039;-68
2023/07/24 09:04:09;;;;;;;10.35;7.78;;;20.60;99.90;;;;;;5051146;28;20043;-68
2023/07/24 09:06:37;;;;;;;10.57;7.38;;;20.60;99.90;;;;;;5031762;28;20499;-68
2023/07/24 09:09:03;;;;;;;13.50;7.55;;;20.60;99.90;;;;;;5032354;28;20045;-68
2023/07/24 09:11:28;;;;;;;10.75;7.20;;;20.60;99.90;;;;;;5035954;28;20132;-68
2023/07/24 09:13:54;;;;;;;13.60;6.80;;;20.80;99.90;;;;;;5042994;28;20120;-70
2023/07/24 09:16:25;;;;;;;11.07;7.28;;;21.00;99.90;;;;;;5039094;28;20091;-69
2023/07/24 09:18:53;;;;;;;;;;;21.30;99.90;;;;;;5040396;28;20552;-69
2023/07/24 09:21:30;;;;;;;11.32;7.25;;;21.60;99.90;;;;;;5030850;28;20398;-69
2023/07/24 09:23:55;;;;;;;11.20;7.40;;;21.90;99.90;;;;;;5031535;28;20438;-69
2023/07/24 09:26:21;;;;;;;11.00;6.75;;;22.20;99.90;;;;;;5032025;28;20049;-69
2023/07/24 09:28:53;;;;;;;9.30;6.18;;;22.40;99.90;;;;;;5044130;28;20048;-70
2023/07/24 09:31:19;;;;;;;10.82;6.35;;;22.50;99.90;;;;;;5043194;28;20048;-68
2023/07/24 09:33:46;;;;;;;11.25;6.95;;;22.60;99.90;;;;;;5039945;28;20025;-68
2023/07/24 09:36:12;;;;;;;7.65;5.55;;;22.60;99.90;;;;;;5051484;28;20041;-69
2023/07/24 09:38:39;;;;;;;11.48;6.50;;;22.70;99.90;;;;;;5051243;28;20041;-68
2023/07/24 09:41:05;;;;;;;11.82;6.18;;;22.90;99.90;;;;;;5052013;28;20041;-70
2023/07/24 09:43:31;;;;;;;9.15;5.60;;;22.80;99.90;;;;;;5050078;28;20490;-70
2023/07/24 09:45:57;;;;;;;8.95;6.10;;;22.50;99.90;;;;;;5042444;28;20069;-70
2023/07/24 09:48:25;;;;;;;8.88;5.45;;;22.30;99.90;;;;;;5047542;28;20500;-70
2023/07/24 09:50:56;;;;;;;7.60;5.47;;;22.10;99.90;;;;;;5034784;28;20093;-70
2023/07/24 09:53:32;;;;;;;9.60;6.25;;;21.90;99.90;;;;;;5051474;28;20033;-70
2023/07/24 09:55:59;;;;;;;12.40;6.22;;;21.80;99.90;;;;;;5031576;28;20037;-70
2023/07/24 09:58:25;;;;;;;8.90;5.85;;;21.60;99.90;;;;;;5031470;28;20104;-70
2023/07/24 10:00:53;;;;;;;8.85;6.18;;;21.60;99.90;;;;;;5033673;28;20049;-69
2023/07/24 10:03:20;;;;;;;8.65;6.22;;;21.60;99.90;;;;;;5042971;28;20041;-69
2023/07/24 10:05:46;;;;;;;7.20;6.03;;;21.80;99.90;;;;;;5047774;28;20041;-70
2023/07/24 10:08:14;;;;;;;9.55;5.70;;;22.00;99.90;;;;;;5042954;28;20048;-70
2023/07/24 10:10:39;;;;;;;8.25;5.60;;;22.10;99.90;;;;;;5051587;28;20033;-70
2023/07/24 10:13:06;;;;;;;9.07;5.40;;;22.00;99.90;;;;;;5050857;28;20036;-69
2023/07/24 10:15:32;;;;;;;7.95;5.18;;;21.90;99.90;;;;;;5051285;28;20041;-69
2023/07/24 10:18:06;;;;;;;10.73;5.50;;;21.60;99.90;;;;;;5048497;28;20032;-70
2023/07/24 10:20:39;;;;;;;12.35;6.40;;;21.50;99.90;;;;;;5041716;28;20045;-69
2023/07/24 10:23:06;;;;;;;10.00;6.70;;;21.30;99.90;;;;;;5038409;28;20065;-69
2023/07/24 10:25:34;;;;;;;9.90;6.40;;;21.20;99.90;;;;;;5031372;28;20064;-68
2023/07/24 10:28:10;;;;;;;8.88;6.45;;;21.20;99.90;;;;;;5031403;28;20426;-68
2023/07/24 10:30:41;;;;;;;11.35;6.90;;;21.00;99.90;;;;;;5030952;28;20041;-68
2023/07/24 10:33:11;;;;;;;9.23;6.10;;;21.20;99.90;;;;;;5031183;28;20450;-68
2023/07/24 10:35:38;;;;;;;;;;;21.30;99.90;;;;;;5044969;28;20094;-68
2023/07/24 10:38:04;;;;;;;11.50;7.18;;;21.30;99.90;;;;;;5041591;28;19974;-68
2023/07/24 10:40:30;;;;;;;10.70;6.70;;;21.30;99.90;;;;;;5043024;28;20084;-68
2023/07/24 10:43:06;;;;;;;9.90;6.70;;;21.40;99.90;;;;;;5050778;28;20063;-68
2023/07/24 10:45:51;;;;;;;12.00;6.93;;;21.50;99.90;;;;;;5050749;28;20395;-69
2023/07/24 10:48:17;;;;;;;10.15;7.25;;;21.80;99.90;;;;;;5039974;28;20476;-68
2023/07/24 10:50:45;;;;;;;8.85;5.95;;;22.10;99.90;;;;;;5031649;28;20041;-69
2023/07/24 10:53:13;;;;;;;9.80;5.90;;;22.40;99.90;;;;;;5050049;28;20064;-69
2023/07/24 10:55:39;;;;;;;8.55;5.97;;;22.60;99.90;;;;;;5041671;28;20052;-69
2023/07/24 10:58:06;;;;;;;8.88;5.80;;;22.90;99.90;;;;;;5049484;28;20037;-69
2023/07/24 11:00:31;;;;;;;10.63;5.78;;;23.20;99.90;;;;;;5049892;28;20056;-69
2023/07/24 11:02:57;;;;;;;8.88;5.60;;;23.40;99.90;;;;;;5050652;28;20041;-69
2023/07/24 11:05:23;;;;;;;10.93;6.07;;;23.60;99.90;;;;;;5050811;28;20040;-70
2023/07/24 11:07:49;;;;;;;9.95;6.13;;;23.80;99.90;;;;;;5049480;28;20021;-69
2023/07/24 11:10:16;;;;;;;8.35;5.75;;;23.80;99.90;;;;;;5050018;28;20490;-70
2023/07/24 11:12:41;;;;;;;7.97;5.68;;;23.70;99.90;;;;;;5035952;28;20044;-69
2023/07/24 11:15:07;;;;;;;8.70;5.15;;;23.50;99.90;;;;;;5034482;28;20045;-69
2023/07/24 11:17:35;;;;;;;8.30;4.70;;;23.20;99.90;;;;;;5034660;28;20042;-69
2023/07/24 11:20:08;;;;;;;13.50;5.55;;;23.10;99.90;;;;;;5053308;22;20049;-66
2023/07/24 11:22:34;;;;;;;8.70;5.60;;;23.00;99.90;;;;;;5034170;28;20037;-65
2023/07/24 11:25:01;;;;;;;8.13;5.63;;;22.90;99.90;;;;;;5034346;28;20034;-66
2023/07/24 11:27:27;;;;;;;8.50;5.40;;;22.90;99.90;;;;;;5033636;28;20496;-67
2023/07/24 11:29:52;;;;;;;6.93;5.22;;;22.90;99.90;;;;;;5033743;28;20030;-66
2023/07/24 11:32:21;;;;;;;7.85;4.93;;;22.90;99.90;;;;;;5032783;28;20065;-67
2023/07/24 11:34:52;;;;;;;12.25;5.53;;;22.90;99.90;;;;;;5031982;28;20053;-67
2023/07/24 11:37:18;;;;;;;7.05;5.32;;;22.90;99.90;;;;;;5030074;28;20041;-66
2023/07/24 11:39:58;;;;;;;8.60;4.75;;;22.80;99.90;;;;;;5032261;28;20534;-66
2023/07/24 11:42:27;;;;;;;6.55;4.80;;;22.80;99.90;;;;;;5033480;28;20499;-66
2023/07/24 11:44:53;;;;;;;8.57;5.20;;;22.80;99.90;;;;;;5030765;28;20029;-66
2023/07/24 11:47:19;;;;;;;6.60;5.43;;;22.80;99.90;;;;;;5031733;28;20506;-66
2023/07/24 11:49:55;;;;;;;8.15;4.65;;;22.70;99.90;;;;;;5031923;28;20083;-66
2023/07/24 11:52:21;;;;;;;6.82;4.47;;;22.70;99.90;;;;;;5033649;28;20037;-66
2023/07/24 11:55:00;;;;;;;8.88;4.90;;;22.70;99.90;;;;;;5031726;28;20567;-66
2023/07/24 11:57:26;;;;;;;8.48;4.60;;;22.70;99.90;;;;;;5033234;28;20491;-66
2023/07/24 11:59:53;;;;;;;8.40;4.22;;;22.80;99.90;;;;;;5033245;28;20107;-66
2023/07/24 12:02:20;;;;;;;9.40;5.15;;;22.90;99.90;;;;;;5033170;28;20129;-65
2023/07/24 12:04:45;;;;;;;7.90;5.30;;;23.00;99.90;;;;;;5033141;28;20092;-66
2023/07/24 12:07:11;;;;;;;6.82;4.43;;;23.00;99.90;;;;;;5033052;28;20037;-66
2023/07/24 12:09:36;;;;;;;9.27;5.30;;;23.00;99.90;;;;;;5032184;28;20084;-66
2023/07/24 12:12:04;;;;;;;7.93;4.90;;;22.90;99.90;;;;;;5032078;28;20487;-66
2023/07/24 12:14:30;;;;;;;6.28;4.88;;;22.80;99.90;;;;;;5030713;28;20037;-66
2023/07/24 12:17:02;;;;;;;8.23;4.72;;;22.70;99.90;;;;;;5038796;28;20063;-66
2023/07/24 12:19:28;;;;;;;6.32;4.85;;;22.60;99.90;;;;;;5032847;28;20390;-66
2023/07/24 12:21:54;;;;;;;6.18;4.30;;;22.60;99.90;;;;;;5033348;28;20041;-66
2023/07/24 12:24:20;;;;;;;7.65;4.85;;;22.60;99.90;;;;;;5032228;28;20044;-66
2023/07/24 12:26:45;;;;;;;6.60;4.68;;;22.60;99.90;;;;;;5032261;28;20039;-66
2023/07/24 12:29:11;;;;;;;7.80;4.88;;;22.70;99.90;;;;;;5033396;28;20036;-66
2023/07/24 12:31:36;;;;;;;6.13;4.45;;;22.70;99.90;;;;;;5032801;28;20108;-66
2023/07/24 12:34:02;;;;;;;6.68;4.93;;;22.70;99.90;;;;;;5033033;28;20055;-66
2023/07/24 12:36:28;;;;;;;8.85;5.38;;;22.80;99.90;;;;;;5034640;28;20045;-66
2023/07/24 12:38:54;;;;;;;11.43;5.35;;;22.80;99.90;;;;;;5037301;28;20156;-66